Time;durP1;ratioP1;P1;durP2;ratioP2;P2;SDS_P1;SDS_P2;PMS_P1;PMS_P2;Temp;Humidity;BMP_temperature;BMP_pressure;BME280_temperature;BME280_humidity;BME280_pressure;Samples;Min_cycle;Max_cycle;Signal;HPM_P1;HPM_P2
2021/03/02 02:12:45;;;;;;;65.37;35.33;;;;;;;2.80;68.24;102077.72;4964597;23;104260;-84
2021/03/02 02:15:26;;;;;;;63.60;34.20;;;;;;;2.78;68.79;102075.91;4862724;28;96982;-86
2021/03/02 02:17:58;;;;;;;56.33;33.83;;;;;;;2.78;68.02;102078.50;4845130;28;97305;-85
2021/03/02 02:20:48;;;;;;;64.75;35.40;;;;;;;2.87;67.93;102069.22;4844897;28;101739;-86
2021/03/02 02:23:13;;;;;;;64.90;36.23;;;;;;;2.93;68.33;102065.91;4860937;28;101793;-86
2021/03/02 02:25:57;;;;;;;64.90;35.83;;;;;;;2.82;68.45;102070.84;4873045;28;96650;-86
2021/03/02 02:28:24;;;;;;;68.27;35.20;;;;;;;2.80;68.41;102066.47;4897256;28;97083;-86
2021/03/02 02:30:55;;;;;;;62.30;34.33;;;;;;;2.75;68.72;102065.47;4879195;28;101671;-86
2021/03/02 02:33:21;;;;;;;59.27;35.53;;;;;;;2.71;68.83;102064.50;4864136;28;101145;-86
2021/03/02 02:35:47;;;;;;;63.63;34.00;;;;;;;2.63;68.73;102071.19;4880387;28;96819;-86
2021/03/02 02:38:15;;;;;;;67.93;37.93;;;;;;;2.60;69.78;102068.53;4864230;28;96952;-86
2021/03/02 02:40:41;;;;;;;61.53;36.40;;;;;;;2.67;69.15;102073.03;4879573;28;101063;-86
2021/03/02 02:43:07;;;;;;;64.03;35.87;;;;;;;2.61;68.25;102071.16;4875285;28;98120;-86
2021/03/02 02:45:33;;;;;;;67.67;37.47;;;;;;;2.63;68.47;102071.19;4880210;28;96616;-86
2021/03/02 02:47:59;;;;;;;69.93;37.97;;;;;;;2.64;68.76;102075.53;4860400;28;97176;-86
2021/03/02 02:50:25;;;;;;;68.70;38.80;;;;;;;2.57;69.59;102073.63;4860682;28;99508;-85
2021/03/02 02:52:51;;;;;;;77.47;41.40;;;;;;;2.53;70.21;102070.09;4860582;28;98002;-86
2021/03/02 02:55:19;;;;;;;106.13;42.63;;;;;;;2.49;70.93;102073.41;4861018;28;96737;-86
2021/03/02 02:57:47;;;;;;;133.17;41.83;;;;;;;2.36;72.14;102067.03;4866848;28;97001;-86
2021/03/02 03:00:13;;;;;;;110.80;41.43;;;;;;;2.10;73.35;102074.09;4878996;28;97518;-86
2021/03/02 03:02:42;;;;;;;83.97;40.87;;;;;;;2.10;73.86;102068.03;4873794;28;101418;-86
2021/03/02 03:05:12;;;;;;;85.93;41.87;;;;;;;2.20;73.02;102065.72;4873098;28;97103;-86
2021/03/02 03:07:44;;;;;;;98.43;40.97;;;;;;;2.17;73.34;102067.34;4848898;28;96668;-86
2021/03/02 03:10:11;;;;;;;96.93;40.88;;;;;;;1.95;74.29;102063.25;4859946;28;98044;-85
2021/03/02 03:12:47;;;;;;;107.43;42.47;;;;;;;2.05;74.46;102065.28;4842052;29;100656;-86
2021/03/02 03:15:15;;;;;;;98.97;43.57;;;;;;;1.91;75.08;102064.00;4868805;28;96580;-86
2021/03/02 03:17:47;;;;;;;95.10;41.97;;;;;;;1.94;74.94;102064.97;4845634;28;97017;-86
2021/03/02 03:20:14;;;;;;;122.72;41.70;;;;;;;1.99;75.13;102060.81;4860269;28;97373;-87
2021/03/02 03:22:39;;;;;;;74.63;38.97;;;;;;;2.31;74.62;102062.56;4860193;28;101018;-85
2021/03/02 03:25:07;;;;;;;78.57;39.17;;;;;;;2.53;73.54;102059.72;4860630;28;96976;-86
2021/03/02 03:27:35;;;;;;;88.90;43.20;;;;;;;2.63;73.10;102053.06;4861066;28;96964;-86
2021/03/02 03:30:02;;;;;;;105.97;38.60;;;;;;;2.61;72.70;102059.91;4859709;28;100924;-86
2021/03/02 03:32:28;;;;;;;69.63;37.57;;;;;;;2.46;73.63;102063.84;4873049;28;101489;-85
2021/03/02 03:34:54;;;;;;;111.20;36.50;;;;;;;2.21;74.44;102059.72;4859897;28;96811;-88
2021/03/02 03:37:20;;;;;;;96.30;35.63;;;;;;;2.21;73.66;102064.00;4860935;28;96980;-87
2021/03/02 03:39:46;;;;;;;70.67;34.93;;;;;;;2.15;74.13;102064.75;4875621;28;97529;-86
2021/03/02 03:42:12;;;;;;;97.30;33.97;;;;;;;2.15;74.16;102069.91;4859539;28;97848;-86
2021/03/02 03:44:37;;;;;;;117.57;33.47;;;;;;;1.92;75.04;102064.06;4860277;28;96711;-86
2021/03/02 03:47:04;;;;;;;80.70;31.67;;;;;;;1.87;75.33;102073.41;4875758;28;96882;-85
2021/03/02 03:49:29;;;;;;;81.63;34.53;;;;;;;1.80;75.01;102068.88;4859622;28;101451;-86
2021/03/02 03:51:55;;;;;;;68.33;31.33;;;;;;;2.12;74.18;102064.63;4881691;28;97664;-86
2021/03/02 03:54:23;;;;;;;56.50;29.43;;;;;;;2.25;73.15;102064.13;4851371;28;97284;-85
2021/03/02 03:56:49;;;;;;;72.33;30.73;;;;;;;2.39;73.03;102058.47;4876104;28;96972;-87
2021/03/02 03:59:14;;;;;;;60.47;32.23;;;;;;;2.37;72.95;102062.72;4842669;28;99388;-85
2021/03/02 04:01:40;;;;;;;78.93;31.03;;;;;;;2.44;72.72;102068.13;4865621;28;101215;-86
2021/03/02 04:04:06;;;;;;;58.43;30.73;;;;;;;2.34;72.72;102076.47;4862370;28;97039;-85
2021/03/02 04:06:33;;;;;;;81.33;30.10;;;;;;;2.14;73.36;102072.44;4859986;28;96893;-85
2021/03/02 04:08:59;;;;;;;58.97;28.90;;;;;;;2.20;72.71;102077.81;4859269;28;98053;-86
2021/03/02 04:11:26;;;;;;;83.73;29.40;;;;;;;2.15;72.58;102079.38;4858429;28;97630;-85
2021/03/02 04:13:51;;;;;;;82.43;32.27;;;;;;;1.90;73.91;102083.00;4875785;28;97147;-88
2021/03/02 04:16:17;;;;;;;80.00;30.50;;;;;;;1.84;73.95;102082.81;4852779;28;97308;-86
2021/03/02 04:18:42;;;;;;;59.40;31.17;;;;;;;2.06;73.84;102074.81;4859361;28;101226;-85
2021/03/02 04:21:08;;;;;;;71.97;29.80;;;;;;;2.26;72.82;102081.44;4858295;28;99647;-86
2021/03/02 04:23:34;;;;;;;65.90;29.67;;;;;;;2.11;73.09;102077.53;4875077;28;96788;-86
2021/03/02 04:25:59;;;;;;;53.67;30.43;;;;;;;2.29;73.18;102072.88;4843410;28;97105;-86
2021/03/02 04:28:25;;;;;;;54.63;28.17;;;;;;;2.28;72.37;102072.84;4859210;28;97953;-86
2021/03/02 04:30:50;;;;;;;63.40;28.20;;;;;;;2.30;72.17;102076.34;4874219;28;100449;-86
2021/03/02 04:33:16;;;;;;;81.87;28.80;;;;;;;2.21;71.79;102069.19;4882018;28;97152;-86
2021/03/02 04:35:42;;;;;;;66.73;27.87;;;;;;;2.13;71.72;102070.72;4862532;28;97123;-85
2021/03/02 04:38:09;;;;;;;108.37;27.43;;;;;;;2.03;71.69;102070.41;4877514;28;98016;-86
2021/03/02 04:40:35;;;;;;;67.57;27.10;;;;;;;2.09;71.85;102061.94;4875739;28;100878;-86
2021/03/02 04:43:00;;;;;;;62.07;27.93;;;;;;;2.22;71.34;102065.78;4858391;28;96813;-86
2021/03/02 04:45:26;;;;;;;68.77;27.90;;;;;;;2.18;71.80;102066.50;4875266;28;96670;-86
2021/03/02 04:47:51;;;;;;;80.23;28.17;;;;;;;2.16;71.66;102069.06;4858467;28;101663;-87
2021/03/02 04:50:17;;;;;;;85.87;28.10;;;;;;;2.05;72.07;102065.28;4873131;28;98368;-87
2021/03/02 04:52:43;;;;;;;96.07;29.43;;;;;;;2.02;72.95;102066.09;4860082;28;96793;-85
2021/03/02 04:55:10;;;;;;;50.43;29.50;;;;;;;2.03;72.63;102075.59;4858802;28;96896;-85
2021/03/02 04:57:36;;;;;;;56.40;28.80;;;;;;;2.00;72.24;102064.28;4850918;28;101262;-86
2021/03/02 05:00:03;;;;;;;80.87;31.20;;;;;;;2.07;72.19;102066.22;4872301;28;97997;-86
2021/03/02 05:02:29;;;;;;;82.67;30.03;;;;;;;2.08;72.85;102061.91;4859251;28;96927;-86
2021/03/02 05:04:54;;;;;;;68.07;29.97;;;;;;;2.06;72.29;102063.56;4859401;28;96788;-86
2021/03/02 05:07:20;;;;;;;66.97;30.53;;;;;;;2.08;72.48;102057.59;4858780;28;101931;-87
2021/03/02 05:09:46;;;;;;;66.07;29.90;;;;;;;1.97;72.91;102064.19;4856735;28;100620;-87
2021/03/02 05:12:11;;;;;;;81.17;29.90;;;;;;;1.97;72.87;102059.00;4847578;28;97186;-87
2021/03/02 05:14:37;;;;;;;62.67;29.53;;;;;;;1.86;73.48;102045.75;4846499;28;97254;-86
2021/03/02 05:17:03;;;;;;;59.23;29.90;;;;;;;1.97;73.39;102049.53;4858713;28;97549;-86
2021/03/02 05:19:30;;;;;;;54.33;26.90;;;;;;;2.07;73.15;102045.50;4859442;28;99447;-86
2021/03/02 05:21:55;;;;;;;63.10;27.60;;;;;;;1.69;74.06;102044.41;4877408;28;96741;-85
2021/03/02 05:24:21;;;;;;;82.33;29.13;;;;;;;1.55;74.09;102047.44;4894031;28;96910;-87
2021/03/02 05:26:46;;;;;;;67.80;27.77;;;;;;;1.42;75.40;102041.84;4893953;28;97289;-87
2021/03/02 05:29:12;;;;;;;78.23;28.53;;;;;;;1.63;74.13;102044.19;4846337;28;100971;-86
2021/03/02 05:31:38;;;;;;;76.97;29.13;;;;;;;1.82;73.82;102049.09;4875127;28;96690;-87
2021/03/02 05:34:03;;;;;;;61.57;25.80;;;;;;;1.75;72.60;102063.56;4875947;28;96760;-86
2021/03/02 05:36:29;;;;;;;45.50;25.23;;;;;;;1.94;72.85;102058.91;4876429;28;97057;-86
2021/03/02 05:38:55;;;;;;;48.60;26.13;;;;;;;2.07;71.83;102047.22;4858437;28;101406;-84
2021/03/02 05:41:21;;;;;;;49.87;25.73;;;;;;;2.00;72.25;102052.19;4858897;28;96581;-87
2021/03/02 05:43:46;;;;;;;56.93;27.30;;;;;;;2.08;72.05;102062.78;4875965;28;97315;-86
2021/03/02 05:46:12;;;;;;;82.47;25.23;;;;;;;1.91;72.22;102051.94;4855827;28;101230;-85
2021/03/02 05:48:42;;;;;;;56.93;27.87;;;;;;;2.07;72.36;102060.16;4846133;28;100003;-86
2021/03/02 05:51:08;;;;;;;51.23;25.83;;;;;;;2.04;72.15;102048.88;4870718;28;96729;-87
2021/03/02 05:53:37;;;;;;;42.23;23.90;;;;;;;2.02;71.87;102049.66;4878701;28;96949;-87
2021/03/02 05:56:07;;;;;;;56.43;24.30;;;;;;;2.06;71.45;102059.28;4836293;29;100168;-85
2021/03/02 05:58:33;;;;;;;91.67;24.80;;;;;;;1.64;72.26;102077.03;4871946;28;102551;-86
2021/03/02 06:00:59;;;;;;;44.73;24.77;;;;;;;1.79;71.69;102069.72;4854685;28;96653;-86
2021/03/02 06:03:25;;;;;;;54.40;23.23;;;;;;;1.81;71.84;102079.28;4877472;28;96817;-86
2021/03/02 06:05:51;;;;;;;54.00;25.07;;;;;;;1.66;72.31;102078.84;4877411;28;99290;-86
2021/03/02 06:08:16;;;;;;;79.00;25.03;;;;;;;1.89;71.82;102071.75;4878730;28;101048;-87
2021/03/02 06:10:42;;;;;;;46.53;24.63;;;;;;;1.90;72.17;102076.09;4868104;28;96719;-86
2021/03/02 06:13:07;;;;;;;46.87;26.80;;;;;;;2.04;72.18;102076.50;4863964;28;96920;-86
2021/03/02 06:15:33;;;;;;;61.87;27.03;;;;;;;1.95;72.08;102081.38;4880567;28;101146;-87
2021/03/02 06:18:12;;;;;;;58.07;26.20;;;;;;;1.93;71.63;102086.53;4848365;28;101489;-87
2021/03/02 06:20:40;;;;;;;53.40;24.37;;;;;;;1.91;72.57;102087.31;4877080;28;96720;-86
2021/03/02 06:23:28;;;;;;;53.90;25.33;;;;;;;1.80;71.96;102082.72;4860583;28;96832;-87
2021/03/02 06:26:14;;;;;;;54.83;26.70;;;;;;;1.90;72.43;102076.09;4845050;28;100040;-87
2021/03/02 06:28:44;;;;;;;49.57;25.27;;;;;;;2.04;71.85;102071.31;4861525;28;98488;-87
2021/03/02 06:31:31;;;;;;;40.83;24.20;;;;;;;2.23;70.43;102078.75;4860607;28;97762;-87
2021/03/02 06:34:17;;;;;;;58.17;26.03;;;;;;;2.22;70.32;102081.31;4890133;28;96993;-87
2021/03/02 06:36:52;;;;;;;73.03;25.40;;;;;;;2.18;70.75;102070.00;4852663;28;101317;-86
2021/03/02 06:39:42;;;;;;;59.50;25.30;;;;;;;2.22;70.61;102074.41;4866464;28;101682;-85
2021/03/02 06:42:21;;;;;;;62.90;24.60;;;;;;;2.28;70.31;102071.13;4872733;28;97449;-85
2021/03/02 06:44:49;;;;;;;57.10;22.87;;;;;;;2.04;70.70;102072.19;4873998;28;97080;-86
2021/03/02 06:47:33;;;;;;;57.30;25.40;;;;;;;1.88;71.51;102080.34;4858837;28;101486;-85
2021/03/02 06:49:59;;;;;;;45.80;24.43;;;;;;;2.01;71.36;102087.66;4853723;28;101470;-87
2021/03/02 06:52:25;;;;;;;62.03;27.43;;;;;;;1.75;72.42;102080.81;4843669;28;97162;-86
2021/03/02 06:54:51;;;;;;;54.40;25.43;;;;;;;1.87;72.55;102081.19;4859773;28;96749;-86
2021/03/02 06:57:24;;;;;;;45.90;26.03;;;;;;;2.06;72.10;102079.13;4860105;28;102302;-87
2021/03/02 06:59:54;;;;;;;47.33;26.30;;;;;;;2.32;71.63;102077.25;4857652;28;97623;-87
2021/03/02 07:02:33;;;;;;;50.63;26.07;;;;;;;2.49;70.54;102086.38;4844128;28;96841;-86
2021/03/02 07:05:06;;;;;;;67.70;24.97;;;;;;;2.56;70.42;102093.50;4857821;28;97103;-85
2021/03/02 07:07:32;;;;;;;45.60;26.73;;;;;;;2.52;70.39;102077.81;4850467;28;101461;-84
2021/03/02 07:10:00;;;;;;;56.23;27.23;;;;;;;2.36;70.94;102090.38;4861029;28;101112;-88
2021/03/02 07:12:32;;;;;;;45.67;25.07;;;;;;;2.55;70.54;102096.03;4861509;28;97078;-88
2021/03/02 07:15:00;;;;;;;54.03;26.92;;;;;;;2.76;70.26;102094.00;4874089;28;97080;-86
2021/03/02 07:17:26;;;;;;;55.00;26.77;;;;;;;2.66;70.34;102097.22;4860581;28;100613;-81
2021/03/02 07:19:52;;;;;;;50.63;27.03;;;;;;;2.55;70.94;102094.31;4857771;28;101435;-82
2021/03/02 07:22:19;;;;;;;53.70;26.63;;;;;;;2.70;70.25;102094.72;4863035;28;96757;-80
2021/03/02 07:24:45;;;;;;;83.47;27.63;;;;;;;2.60;70.20;102097.94;4845794;28;97339;-80
2021/03/02 07:27:12;;;;;;;48.00;26.10;;;;;;;2.62;70.38;102100.56;4886818;28;98603;-79
2021/03/02 07:29:38;;;;;;;49.20;26.97;;;;;;;2.65;70.51;102103.25;4861317;28;101637;-79
2021/03/02 07:32:04;;;;;;;50.77;26.47;;;;;;;2.80;69.75;102111.44;4858202;28;96795;-89
2021/03/02 07:34:30;;;;;;;64.00;25.50;;;;;;;2.63;69.91;102102.31;4852995;28;97651;-81
2021/03/02 07:36:56;;;;;;;54.20;25.00;;;;;;;2.57;69.89;102121.19;4833995;28;100069;-87
2021/03/02 07:39:27;;;;;;;42.23;24.17;;;;;;;2.69;70.37;102115.44;4851667;29;97231;-81
2021/03/02 07:41:52;;;;;;;39.33;23.40;;;;;;;2.88;69.78;102114.19;4852428;28;96962;-79
2021/03/02 07:44:18;;;;;;;45.67;23.23;;;;;;;3.12;69.09;102114.84;4856174;28;97030;-78
2021/03/02 07:46:47;;;;;;;57.40;23.80;;;;;;;2.98;69.09;102113.63;4859877;28;101541;-81
2021/03/02 07:49:24;;;;;;;42.10;24.97;;;;;;;3.04;69.59;102115.50;4874050;28;101251;-78
2021/03/02 07:51:56;;;;;;;46.30;24.50;;;;;;;3.10;69.50;102113.91;4854077;28;97372;-78
2021/03/02 07:54:22;;;;;;;45.38;25.23;;;;;;;3.13;68.88;102106.22;4874988;28;96770;-81
2021/03/02 07:56:48;;;;;;;68.43;24.93;;;;;;;2.94;69.54;102117.84;4867937;28;98125;-78
2021/03/02 07:59:13;;;;;;;44.17;25.07;;;;;;;3.07;69.57;102121.63;4858713;28;100938;-79
2021/03/02 08:01:40;;;;;;;47.80;25.73;;;;;;;3.29;69.22;102117.88;4877724;28;96724;-79
2021/03/02 08:04:15;;;;;;;46.00;23.77;;;;;;;3.37;68.46;102120.63;4871925;28;97140;-79
2021/03/02 08:06:49;;;;;;;41.47;23.90;;;;;;;3.49;68.10;102107.97;4859561;28;101349;-79
2021/03/02 08:09:35;;;;;;;42.63;23.70;;;;;;;3.58;67.82;102108.16;4860607;28;101598;-77
2021/03/02 08:12:23;;;;;;;53.37;27.53;;;;;;;3.62;67.70;102106.50;4867409;28;96775;-85
2021/03/02 08:14:49;;;;;;;44.83;25.73;;;;;;;3.61;68.32;102107.38;4866624;28;96825;-77
2021/03/02 08:17:22;;;;;;;54.73;28.00;;;;;;;3.81;67.82;102110.38;4862592;28;101013;-76
2021/03/02 08:20:03;;;;;;;44.40;26.17;;;;;;;3.90;66.64;102109.72;4866260;28;101389;-74
2021/03/02 08:22:33;;;;;;;46.23;27.00;;;;;;;3.94;66.90;102101.16;4878474;28;96993;-74
2021/03/02 08:25:04;;;;;;;45.03;26.17;;;;;;;3.90;67.28;102099.31;4894574;28;97131;-81
2021/03/02 08:27:44;;;;;;;53.30;22.60;;;;;;;4.07;66.98;102091.06;4893690;28;101098;-75
2021/03/02 08:30:13;;;;;;;47.43;24.03;;;;;;;4.04;66.96;102096.19;4876554;28;97436;-75
2021/03/02 08:32:40;;;;;;;41.43;23.57;;;;;;;4.18;66.41;102101.66;4843591;28;96774;-77
2021/03/02 08:35:08;;;;;;;43.80;22.93;;;;;;;4.17;66.17;102099.03;4869128;28;96955;-77
2021/03/02 08:37:38;;;;;;;37.07;22.00;;;;;;;4.61;65.51;102104.25;4865982;28;98019;-75
2021/03/02 08:40:04;;;;;;;41.73;20.17;;;;;;;4.58;64.94;102107.66;4877228;28;101008;-77
2021/03/02 08:42:29;;;;;;;38.43;21.57;;;;;;;4.47;65.35;102099.63;4873460;28;97187;-75
2021/03/02 08:45:09;;;;;;;37.73;22.43;;;;;;;4.50;65.56;102114.44;4840815;28;96995;-77
2021/03/02 08:47:36;;;;;;;35.83;20.87;;;;;;;4.56;65.37;102108.47;4876787;28;97414;-76
2021/03/02 08:50:04;;;;;;;35.30;21.87;;;;;;;4.84;64.58;102107.25;4858459;28;101325;-82
2021/03/02 08:52:40;;;;;;;36.97;22.13;;;;;;;5.12;63.95;102103.38;4882459;28;96929;-77
2021/03/02 08:55:07;;;;;;;38.27;21.80;;;;;;;5.22;63.71;102110.53;4857573;28;97172;-77
2021/03/02 08:57:45;;;;;;;37.67;22.60;;;;;;;5.29;63.80;102111.50;4858019;28;98512;-77
2021/03/02 09:00:15;;;;;;;38.10;21.90;;;;;;;5.37;63.84;102115.97;4840117;28;101595;-76
2021/03/02 09:02:44;;;;;;;40.03;23.50;;;;;;;5.46;63.49;102120.44;4857824;28;96817;-77
2021/03/02 09:05:17;;;;;;;40.23;24.67;;;;;;;5.33;63.83;102129.81;4875379;28;97409;-76
2021/03/02 09:08:07;;;;;;;48.27;24.03;;;;;;;5.47;63.88;102118.72;4857929;28;99829;-77
2021/03/02 09:10:34;;;;;;;41.90;23.33;;;;;;;5.47;63.96;102122.22;4871136;28;97445;-79
2021/03/02 09:13:00;;;;;;;48.60;25.47;;;;;;;5.57;63.86;102129.31;4840325;28;97243;-82
2021/03/02 09:15:36;;;;;;;43.83;26.03;;;;;;;5.55;63.72;102128.41;4855920;28;97535;-76
2021/03/02 09:18:16;;;;;;;47.17;27.13;;;;;;;5.57;64.29;102120.63;4839069;28;101730;-82
2021/03/02 09:20:54;;;;;;;53.07;26.73;;;;;;;5.87;63.52;102118.44;4855114;28;99595;-75
2021/03/02 09:23:20;;;;;;;51.40;27.33;;;;;;;6.10;63.33;102115.31;4840130;28;99559;-76
2021/03/02 09:25:46;;;;;;;47.20;28.67;;;;;;;6.01;63.11;102103.03;4835264;29;97521;-79
2021/03/02 09:28:16;;;;;;;58.43;28.40;;;;;;;5.92;64.06;102110.69;4857363;28;101123;-76
2021/03/02 09:30:43;;;;;;;54.77;27.97;;;;;;;5.81;64.55;102113.16;4852885;28;101626;-77
2021/03/02 09:33:11;;;;;;;49.23;27.33;;;;;;;5.82;64.37;102109.72;4856984;28;96799;-77
2021/03/02 09:35:38;;;;;;;52.17;28.23;;;;;;;5.86;63.86;102106.28;4828962;28;97598;-76
2021/03/02 09:38:04;;;;;;;47.93;28.20;;;;;;;5.83;64.12;102106.22;4870782;28;97576;-80
2021/03/02 09:40:42;;;;;;;51.17;30.33;;;;;;;6.02;63.58;102106.50;4864849;28;98422;-76
2021/03/02 09:43:09;;;;;;;62.33;31.30;;;;;;;6.24;63.61;102108.53;4854583;28;96809;-76
2021/03/02 09:45:35;;;;;;;54.43;31.77;;;;;;;6.40;63.65;102114.84;4853450;28;97372;-75
2021/03/02 09:48:07;;;;;;;56.97;32.17;;;;;;;6.17;63.21;102111.94;4857350;28;101509;-80
2021/03/02 09:50:36;;;;;;;56.08;31.38;;;;;;;6.32;63.51;102111.25;4860130;28;101009;-78
2021/03/02 09:53:12;;;;;;;51.63;31.13;;;;;;;6.62;62.99;102112.44;4841084;28;97330;-81
2021/03/02 09:55:37;;;;;;;61.23;33.67;;;;;;;7.02;61.97;102113.72;4872295;28;97237;-75
2021/03/02 09:58:14;;;;;;;61.43;34.20;;;;;;;7.37;61.18;102118.38;4841179;28;101394;-80
2021/03/02 10:00:45;;;;;;;56.73;34.13;;;;;;;7.63;61.13;102108.97;4841836;28;100943;-76
2021/03/02 10:03:30;;;;;;;58.10;33.50;;;;;;;7.90;60.42;102108.25;4872493;28;97163;-76
2021/03/02 10:06:06;;;;;;;54.20;33.73;;;;;;;7.99;60.15;102098.72;4864924;28;97283;-76
2021/03/02 10:08:38;;;;;;;56.67;33.47;;;;;;;8.08;59.58;102107.47;4862837;28;98066;-77
2021/03/02 10:11:13;;;;;;;58.10;34.67;;;;;;;8.35;59.35;102104.09;4872206;28;101495;-77
2021/03/02 10:13:45;;;;;;;54.85;32.22;;;;;;;8.44;59.18;102108.53;4849961;29;97168;-78
2021/03/02 10:16:28;;;;;;;57.72;34.00;;;;;;;8.73;58.92;102107.75;4865739;28;97704;-77
2021/03/02 10:19:04;;;;;;;53.47;32.58;;;;;;;9.10;57.81;102099.91;4874932;28;100456;-77
2021/03/02 10:21:40;;;;;;;49.92;32.47;;;;;;;9.13;57.63;102100.78;4860315;28;101951;-76
2021/03/02 10:24:06;;;;;;;53.63;32.60;;;;;;;9.18;57.98;102101.66;4859623;28;96779;-75
2021/03/02 10:26:34;;;;;;;50.88;32.05;;;;;;;9.24;57.27;102104.28;4860687;28;97141;-74
2021/03/02 10:29:00;;;;;;;50.25;31.40;;;;;;;9.38;57.37;102109.50;4860305;28;97391;-74
2021/03/02 10:31:27;;;;;;;49.42;31.00;;;;;;;9.50;56.95;102096.38;4859839;28;98338;-73
2021/03/02 10:33:52;;;;;;;49.35;31.52;;;;;;;9.44;56.85;102095.53;4862148;28;97124;-88
2021/03/02 10:36:22;;;;;;;53.03;32.38;;;;;;;9.47;57.20;102099.00;4885526;28;97353;-73
2021/03/02 10:38:48;;;;;;;49.53;30.58;;;;;;;9.66;57.09;102099.00;4873224;28;97760;-73
2021/03/02 10:41:15;;;;;;;54.75;32.85;;;;;;;9.66;56.64;102085.91;4842906;28;101024;-74
2021/03/02 10:43:40;;;;;;;50.75;32.35;;;;;;;9.78;56.32;102092.84;4844750;28;97185;-73
2021/03/02 10:46:06;;;;;;;51.70;32.33;;;;;;;9.84;55.96;102098.09;4852416;28;97223;-78
2021/03/02 10:48:32;;;;;;;54.35;32.60;;;;;;;9.71;56.62;102091.97;4848975;28;101012;-75
2021/03/02 10:50:57;;;;;;;50.60;31.80;;;;;;;9.67;57.16;102083.25;4858989;28;101111;-73
2021/03/02 10:53:23;;;;;;;47.05;30.33;;;;;;;9.78;56.71;102095.47;4871287;28;96786;-74
2021/03/02 10:55:50;;;;;;;52.95;33.50;;;;;;;9.91;56.83;102086.69;4844442;28;97062;-73
2021/03/02 10:58:15;;;;;;;58.08;33.40;;;;;;;9.96;56.33;102087.53;4858706;28;100898;-73
2021/03/02 11:00:41;;;;;;;50.40;33.05;;;;;;;9.88;55.99;102077.06;4859352;28;101071;-73
2021/03/02 11:03:06;;;;;;;55.30;33.30;;;;;;;9.90;55.99;102074.44;4858807;28;97274;-77
2021/03/02 11:05:32;;;;;;;61.38;34.13;;;;;;;9.80;56.64;102065.72;4866109;28;97104;-76
2021/03/02 11:07:57;;;;;;;52.67;34.50;;;;;;;9.94;56.98;102066.53;4854921;28;97821;-73
2021/03/02 11:10:25;;;;;;;55.42;33.63;;;;;;;10.03;56.26;102062.16;4874203;28;97902;-74
2021/03/02 11:12:50;;;;;;;53.75;33.85;;;;;;;9.95;56.14;102056.97;4859379;28;96729;-78
2021/03/02 11:15:16;;;;;;;61.30;36.28;;;;;;;9.92;56.65;102062.22;4875311;28;96862;-79
2021/03/02 11:17:42;;;;;;;62.10;36.20;;;;;;;9.96;56.66;102056.94;4876719;28;98005;-80
2021/03/02 11:20:07;;;;;;;56.53;34.65;;;;;;;9.88;56.81;102047.34;4878516;28;97364;-79
2021/03/02 11:22:33;;;;;;;55.33;35.00;;;;;;;9.94;56.82;102047.31;4878823;28;97147;-79
2021/03/02 11:24:59;;;;;;;54.40;35.03;;;;;;;9.97;56.95;102052.56;4879447;28;97257;-79
2021/03/02 11:27:25;;;;;;;56.10;35.45;;;;;;;9.86;56.65;102054.34;4877262;28;101205;-79
2021/03/02 11:29:51;;;;;;;55.95;35.47;;;;;;;9.88;57.23;102042.97;4878625;28;97515;-79
2021/03/02 11:32:16;;;;;;;52.25;36.58;;;;;;;9.95;56.43;102044.72;4893876;28;97094;-79
2021/03/02 11:34:42;;;;;;;53.85;35.25;;;;;;;9.83;57.39;102039.50;4878737;28;97268;-79
2021/03/02 11:37:08;;;;;;;55.63;35.65;;;;;;;9.88;57.77;102048.22;4877228;28;101636;-79
2021/03/02 11:39:33;;;;;;;59.90;35.55;;;;;;;9.75;57.46;102047.41;4859251;28;101028;-79
2021/03/02 11:41:59;;;;;;;61.38;34.92;;;;;;;9.81;57.42;102045.63;4876377;28;97004;-79
2021/03/02 11:44:25;;;;;;;51.90;35.38;;;;;;;9.94;57.42;102037.69;4843472;28;98009;-79
2021/03/02 11:46:50;;;;;;;64.18;38.97;;;;;;;9.93;57.25;102035.97;4875076;28;97415;-79
2021/03/02 11:49:16;;;;;;;60.35;36.75;;;;;;;9.98;57.66;102035.94;4874027;28;97400;-79
2021/03/02 11:51:41;;;;;;;59.22;38.00;;;;;;;10.04;57.95;102035.94;4859115;28;97207;-79
2021/03/02 11:54:07;;;;;;;58.42;36.47;;;;;;;9.99;57.77;102024.56;4858808;28;97201;-76
2021/03/02 11:56:33;;;;;;;64.63;38.10;;;;;;;10.00;57.68;102028.06;4858616;28;101425;-79
2021/03/02 11:58:59;;;;;;;57.88;35.13;;;;;;;10.09;57.41;102020.13;4858052;28;100584;-80
2021/03/02 12:01:24;;;;;;;65.32;38.72;;;;;;;9.98;57.86;102023.69;4855256;28;96722;-79
2021/03/02 12:03:50;;;;;;;59.65;37.45;;;;;;;10.05;58.03;102023.66;4858696;28;97040;-79
2021/03/02 12:06:15;;;;;;;61.25;38.72;;;;;;;10.07;57.71;102021.91;4873641;28;99373;-79
2021/03/02 12:08:41;;;;;;;58.35;36.72;;;;;;;10.09;57.19;102013.13;4858667;28;101326;-79
2021/03/02 12:11:07;;;;;;;59.92;37.83;;;;;;;10.02;57.54;102011.44;4858933;28;97425;-76
2021/03/02 12:13:32;;;;;;;64.72;39.78;;;;;;;10.00;57.66;102009.69;4877788;28;96945;-79
2021/03/02 12:15:58;;;;;;;61.42;35.42;;;;;;;9.97;57.05;102002.72;4877497;28;101610;-80
2021/03/02 12:18:23;;;;;;;62.95;38.13;;;;;;;9.97;57.26;102000.09;4857600;28;99565;-79
2021/03/02 12:20:49;;;;;;;62.15;38.00;;;;;;;10.08;57.29;102013.16;4871548;28;96804;-80
2021/03/02 12:23:15;;;;;;;63.33;37.38;;;;;;;10.09;57.58;102007.88;4892963;28;96959;-80
2021/03/02 12:25:40;;;;;;;56.78;38.17;;;;;;;10.15;56.65;102000.00;4861647;28;101104;-79
2021/03/02 12:28:06;;;;;;;55.15;35.58;;;;;;;10.13;56.44;101993.88;4884821;28;97262;-76
2021/03/02 12:30:32;;;;;;;63.85;36.08;;;;;;;10.28;56.01;101994.72;4873389;28;97410;-77
2021/03/02 12:32:58;;;;;;;62.95;37.65;;;;;;;10.31;56.69;101997.31;4842627;28;97084;-78
2021/03/02 12:35:24;;;;;;;56.83;36.55;;;;;;;10.30;56.10;101988.56;4870834;28;97552;-78
2021/03/02 12:37:50;;;;;;;52.97;34.80;;;;;;;10.35;55.63;101984.16;4859084;28;99224;-82
2021/03/02 12:40:16;;;;;;;52.90;34.08;;;;;;;10.33;55.67;101972.81;4855718;28;97248;-78
2021/03/02 12:42:42;;;;;;;54.08;35.17;;;;;;;10.40;55.72;101982.38;4858114;28;97343;-79
2021/03/02 12:45:08;;;;;;;53.90;33.80;;;;;;;10.38;55.21;101988.50;4838175;28;102025;-78
2021/03/02 12:47:34;;;;;;;57.40;35.03;;;;;;;10.56;54.53;101988.41;4852069;28;98051;-81
2021/03/02 12:50:02;;;;;;;57.80;34.22;;;;;;;10.43;53.85;101977.09;4866193;28;97096;-76
2021/03/02 12:52:27;;;;;;;55.35;33.53;;;;;;;10.47;54.13;101980.59;4855940;28;97439;-76
2021/03/02 12:54:53;;;;;;;53.60;32.90;;;;;;;10.46;54.72;101980.59;4840300;28;101179;-75
2021/03/02 12:57:19;;;;;;;49.83;32.67;;;;;;;10.53;53.83;101982.28;4868029;28;100545;-74
2021/03/02 12:59:44;;;;;;;53.72;34.65;;;;;;;10.53;54.55;101980.53;4840520;28;96872;-74
2021/03/02 13:02:10;;;;;;;58.15;34.05;;;;;;;10.64;53.75;101973.44;4852285;28;97336;-75
2021/03/02 13:04:36;;;;;;;51.30;33.35;;;;;;;10.69;53.95;101976.03;4872267;28;100980;-77
2021/03/02 13:07:02;;;;;;;54.47;33.92;;;;;;;10.72;53.34;101969.88;4857937;28;97467;-75
2021/03/02 13:09:28;;;;;;;55.28;32.10;;;;;;;10.62;53.31;101974.34;4856483;28;97018;-74
2021/03/02 13:11:53;;;;;;;54.72;33.25;;;;;;;10.59;53.56;101974.38;4842726;28;96717;-74
2021/03/02 13:14:19;;;;;;;54.13;31.95;;;;;;;10.51;53.33;101970.94;4866212;28;97757;-74
2021/03/02 13:16:45;;;;;;;45.58;29.70;;;;;;;10.68;53.21;101976.06;4841421;28;101470;-74
2021/03/02 13:19:11;;;;;;;49.25;29.25;;;;;;;10.76;53.72;101972.47;4857450;28;97145;-76
2021/03/02 13:21:38;;;;;;;53.95;30.98;;;;;;;10.79;53.21;101972.44;4836652;28;97322;-76
2021/03/02 13:24:05;;;;;;;49.58;28.50;;;;;;;10.91;53.59;101966.22;4841143;28;101072;-73
2021/03/02 13:26:34;;;;;;;45.55;27.05;;;;;;;10.92;52.76;101974.97;4851772;28;98031;-74
2021/03/02 13:29:11;;;;;;;42.22;26.30;;;;;;;11.01;51.71;101964.38;4837673;28;96837;-73
2021/03/02 13:31:39;;;;;;;42.65;24.40;;;;;;;10.91;51.88;101957.44;4843175;28;97338;-74